Time;durP1;ratioP1;P1;durP2;ratioP2;P2;SDS_P1;SDS_P2;PMS_P1;PMS_P2;Temp;Humidity;BMP_temperature;BMP_pressure;BME280_temperature;BME280_humidity;BME280_pressure;Samples;Min_cycle;Max_cycle;Signal;HPM_P1;HPM_P2
2023/06/17 00:00:38;;;;;;;4.80;2.35;;;;;;;24.12;37.22;101564.94;16119200;19;130585;-47
2023/06/17 00:06:00;;;;;;;3.50;2.47;;;;;;;24.11;37.20;101566.03;16113466;19;129836;-47
2023/06/17 00:11:22;;;;;;;3.75;2.33;;;;;;;24.10;36.76;101564.34;16119507;19;129541;-50
2023/06/17 00:16:44;;;;;;;2.90;2.10;;;;;;;24.09;37.39;101557.09;16114328;19;131615;-46
2023/06/17 00:22:08;;;;;;;2.28;2.08;;;;;;;24.09;37.45;101557.09;16112951;19;129534;-48
2023/06/17 00:27:30;;;;;;;5.15;2.28;;;;;;;24.08;36.95;101558.19;16119982;19;131012;-48
2023/06/17 00:32:52;;;;;;;4.15;2.40;;;;;;;24.07;37.21;101556.50;16112964;19;131349;-49
2023/06/17 00:38:14;;;;;;;3.17;2.10;;;;;;;24.06;37.08;101558.44;16113026;19;130562;-49
2023/06/17 00:43:36;;;;;;;3.47;2.08;;;;;;;24.06;37.08;101557.59;16116372;19;129200;-48
2023/06/17 00:48:58;;;;;;;2.63;2.00;;;;;;;24.05;37.12;101541.94;16110536;19;129805;-45
2023/06/17 00:54:20;;;;;;;3.78;2.10;;;;;;;24.03;36.76;101546.97;16115574;19;129645;-47
2023/06/17 00:59:44;;;;;;;2.80;2.38;;;;;;;24.03;37.13;101549.75;16115507;19;130324;-48
2023/06/17 01:05:12;;;;;;;2.40;2.20;;;;;;;24.02;36.70;101554.50;16115725;19;130366;-50
2023/06/17 01:10:55;;;;;;;3.55;2.08;;;;;;;24.02;36.93;101543.34;16110352;19;130704;-49
2023/06/17 01:16:20;;;;;;;3.80;1.90;;;;;;;23.99;36.95;101538.28;16111997;19;129685;-49
2023/06/17 01:21:43;;;;;;;2.78;2.03;;;;;;;23.97;36.93;101535.75;16111117;19;129807;-46
2023/06/17 01:27:05;;;;;;;3.08;1.75;;;;;;;23.99;36.82;101543.03;16112172;19;131092;-49
2023/06/17 01:32:27;;;;;;;3.13;2.03;;;;;;;23.96;36.76;101536.88;16111012;19;129978;-47
2023/06/17 01:37:58;;;;;;;3.90;2.15;;;;;;;23.97;36.82;101535.75;16106902;19;130804;-47
2023/06/17 01:43:21;;;;;;;2.38;1.98;;;;;;;23.96;36.99;101534.06;16106603;19;130117;-52
2023/06/17 01:48:43;;;;;;;2.45;2.00;;;;;;;23.96;36.94;101536.88;16103673;19;131161;-52
2023/06/17 01:54:05;;;;;;;2.35;1.77;;;;;;;23.95;36.82;101537.13;16106706;19;130702;-49
2023/06/17 01:59:28;;;;;;;2.28;2.08;;;;;;;23.94;37.17;101541.88;16105472;19;130254;-51
2023/06/17 02:04:50;;;;;;;1.88;1.77;;;;;;;23.94;36.63;101543.81;16104757;19;130023;-46
2023/06/17 02:10:13;;;;;;;2.35;1.92;;;;;;;23.93;36.84;101534.59;16108527;19;131424;-56
2023/06/17 02:15:35;;;;;;;3.03;2.00;;;;;;;23.92;36.55;101538.50;16107537;19;130251;-48
2023/06/17 02:20:57;;;;;;;4.15;1.90;;;;;;;23.92;36.38;101537.69;16104610;19;129356;-45
2023/06/17 02:26:19;;;;;;;3.03;2.10;;;;;;;23.90;36.54;101529.53;16111018;19;130040;-46
2023/06/17 02:31:41;;;;;;;2.83;2.10;;;;;;;23.88;36.50;101525.34;16110011;19;131373;-46
2023/06/17 02:37:03;;;;;;;3.83;2.10;;;;;;;23.88;36.29;101520.56;16103495;19;131962;-49
2023/06/17 02:42:25;;;;;;;3.50;1.95;;;;;;;23.87;36.86;101513.34;16106726;19;130590;-47
2023/06/17 02:47:47;;;;;;;2.53;2.00;;;;;;;23.87;36.56;101506.88;16107798;19;131393;-52
2023/06/17 02:53:10;;;;;;;2.33;2.13;;;;;;;23.85;36.54;101498.78;16105064;19;134419;-52
2023/06/17 02:58:32;;;;;;;3.17;2.22;;;;;;;23.85;36.58;101497.94;16100587;19;130249;-49
2023/06/17 03:03:55;;;;;;;2.13;1.83;;;;;;;23.84;36.60;101497.09;16092304;19;130496;-49
2023/06/17 03:09:17;;;;;;;3.72;2.00;;;;;;;23.82;36.68;101485.34;16088937;19;130721;-53
2023/06/17 03:14:39;;;;;;;3.15;2.17;;;;;;;23.81;36.58;101480.88;16099315;19;130558;-50
2023/06/17 03:20:01;;;;;;;3.33;1.90;;;;;;;23.80;36.42;101481.97;16104082;19;130068;-49
2023/06/17 03:25:23;;;;;;;2.42;1.92;;;;;;;23.79;36.12;101478.34;16104571;19;129891;-53
2023/06/17 03:30:45;;;;;;;2.22;1.88;;;;;;;23.78;36.21;101470.22;16103691;19;129820;-48
2023/06/17 03:36:07;;;;;;;2.47;2.17;;;;;;;23.77;36.44;101462.94;16121080;19;129586;-48
2023/06/17 03:41:29;;;;;;;2.78;2.00;;;;;;;23.75;35.89;101473.56;16119807;19;134485;-46
2023/06/17 03:46:51;;;;;;;6.15;1.73;;;;;;;23.75;36.08;101470.78;16116410;19;129887;-48
2023/06/17 03:52:13;;;;;;;4.95;2.47;;;;;;;23.74;35.92;101474.69;16119421;19;130693;-47
2023/06/17 03:57:35;;;;;;;3.05;1.80;;;;;;;23.73;35.91;101473.81;16115456;19;129642;-48
2023/06/17 04:02:57;;;;;;;3.55;2.22;;;;;;;23.73;36.13;101484.16;16116786;19;130610;-50
2023/06/17 04:08:19;;;;;;;3.08;2.30;;;;;;;23.72;35.79;101488.06;16116777;19;130369;-50
2023/06/17 04:13:41;;;;;;;3.47;2.22;;;;;;;23.71;35.65;101492.78;16122040;19;130336;-47
2023/06/17 04:19:03;;;;;;;2.17;1.98;;;;;;;23.71;35.36;101497.56;16110233;19;130851;-46
2023/06/17 04:24:25;;;;;;;3.78;2.15;;;;;;;23.69;35.74;101496.97;16118139;19;130196;-48
2023/06/17 04:29:47;;;;;;;3.58;2.10;;;;;;;23.68;35.56;101500.88;16116807;19;132315;-49
2023/06/17 04:35:10;;;;;;;8.88;4.82;;;;;;;23.61;33.31;101499.16;16112545;19;130800;-52
2023/06/17 04:40:32;;;;;;;19.42;5.72;;;;;;;23.24;31.82;101499.91;16114606;19;131208;-48
2023/06/17 04:45:54;;;;;;;14.02;6.07;;;;;;;22.94;31.76;101500.44;16115101;19;135382;-48
2023/06/17 04:51:17;;;;;;;9.70;5.55;;;;;;;22.81;31.62;101501.66;16108535;19;129723;-51
2023/06/17 04:56:40;;;;;;;19.98;5.15;;;;;;;22.70;31.91;101501.53;16109934;19;133155;-48
2023/06/17 05:02:03;;;;;;;15.27;5.25;;;;;;;22.72;32.47;101499.31;16109675;19;131509;-45
2023/06/17 05:07:24;;;;;;;9.30;5.35;;;;;;;22.77;31.99;101500.50;16106191;19;129562;-47
2023/06/17 05:12:46;;;;;;;10.35;5.22;;;;;;;22.75;32.04;101503.53;16110821;19;130401;-48
2023/06/17 05:18:08;;;;;;;13.02;5.88;;;;;;;22.65;32.09;101506.19;16111697;19;129660;-50
2023/06/17 05:23:30;;;;;;;7.18;5.03;;;;;;;22.58;31.88;101503.59;16111444;19;131776;-46
2023/06/17 05:28:53;;;;;;;9.73;5.28;;;;;;;22.54;32.19;101506.06;16111043;19;129812;-48
2023/06/17 05:34:15;;;;;;;9.32;5.28;;;;;;;22.52;32.29;101499.91;16112355;19;131025;-46
2023/06/17 05:39:37;;;;;;;8.57;5.43;;;;;;;22.51;32.34;101497.41;16112242;19;130366;-47
2023/06/17 05:44:59;;;;;;;7.55;5.22;;;;;;;22.48;32.42;101498.72;16108974;19;129730;-45
2023/06/17 05:50:22;;;;;;;9.68;5.97;;;;;;;22.43;32.16;101502.31;16107705;19;131957;-50
2023/06/17 05:55:45;;;;;;;5.60;4.13;;;;;;;22.48;32.04;101500.69;16101690;19;130512;-47
2023/06/17 06:01:06;;;;;;;7.90;3.78;;;;;;;22.63;32.24;101503.69;16108488;19;131277;-45
2023/06/17 06:06:28;;;;;;;6.50;3.28;;;;;;;22.76;32.06;101498.81;16108278;19;130899;-49
2023/06/17 06:11:53;;;;;;;10.77;3.40;;;;;;;22.85;32.19;101497.25;16110966;19;131064;-50
2023/06/17 06:17:15;;;;;;;11.13;3.15;;;;;;;22.94;32.44;101495.69;16109332;19;130742;-51
2023/06/17 06:22:37;;;;;;;5.28;2.85;;;;;;;23.01;32.13;101496.34;16110752;19;131392;-49
2023/06/17 06:27:59;;;;;;;8.85;2.67;;;;;;;23.06;31.93;101498.34;16105470;19;130047;-51
2023/06/17 06:33:22;;;;;;;5.78;3.17;;;;;;;23.12;32.21;101502.03;16104088;19;131696;-49
2023/06/17 06:38:44;;;;;;;4.88;2.83;;;;;;;23.14;32.31;101494.25;16104996;19;130959;-47
2023/06/17 06:44:09;;;;;;;4.68;3.17;;;;;;;23.17;32.20;101499.28;16109303;19;129568;-49
2023/06/17 06:49:33;;;;;;;4.68;2.67;;;;;;;23.20;32.47;101490.38;16106314;19;130554;-45
2023/06/17 06:54:55;;;;;;;4.40;2.63;;;;;;;23.22;32.65;101490.97;16102823;19;130299;-49
2023/06/17 07:00:18;;;;;;;5.50;3.33;;;;;;;23.26;32.36;101496.84;16102742;19;129952;-47
2023/06/17 07:05:40;;;;;;;7.05;3.08;;;;;;;23.28;32.61;101495.47;16104165;19;129429;-46
2023/06/17 07:11:02;;;;;;;5.28;3.03;;;;;;;23.29;32.78;101486.00;16113300;19;131752;-50
2023/06/17 07:16:24;;;;;;;5.57;2.58;;;;;;;23.29;32.68;101491.56;16116950;19;131025;-49
2023/06/17 07:21:48;;;;;;;5.40;2.80;;;;;;;23.31;32.47;101489.38;16121172;19;130655;-51
2023/06/17 07:27:12;;;;;;;4.72;2.60;;;;;;;23.33;32.68;101491.88;16116326;19;130232;-46
2023/06/17 07:32:34;;;;;;;6.03;2.88;;;;;;;23.34;32.49;101491.63;16118588;19;130203;-48
2023/06/17 07:37:56;;;;;;;3.83;3.00;;;;;;;23.34;32.79;101480.47;16113687;19;130556;-48
2023/06/17 07:43:18;;;;;;;4.97;2.70;;;;;;;23.37;32.68;101481.06;16113864;19;130669;-45
2023/06/17 07:48:40;;;;;;;4.88;2.80;;;;;;;23.38;32.68;101488.31;16120521;19;130238;-47
2023/06/17 07:54:01;;;;;;;5.03;2.53;;;;;;;23.39;32.39;101489.97;16121046;19;130677;-47
2023/06/17 07:59:23;;;;;;;4.03;2.65;;;;;;;23.40;32.97;101497.25;16117511;19;129543;-48
2023/06/17 08:04:47;;;;;;;4.85;2.70;;;;;;;23.41;32.82;101498.94;16118008;19;130620;-50
2023/06/17 08:10:09;;;;;;;3.75;2.30;;;;;;;23.41;33.23;101499.78;16119869;19;131088;-50
2023/06/17 08:15:31;;;;;;;5.80;2.45;;;;;;;23.43;32.70;101482.75;16121872;19;129512;-47
2023/06/17 08:20:53;;;;;;;3.97;2.60;;;;;;;23.44;32.92;101487.25;16120025;19;129928;-46
2023/06/17 08:26:15;;;;;;;6.20;2.20;;;;;;;23.46;32.97;101487.81;16107268;19;130891;-52
2023/06/17 08:31:37;;;;;;;3.30;2.40;;;;;;;23.47;32.87;101483.94;16116085;19;130965;-51
2023/06/17 08:37:03;;;;;;;9.90;2.65;;;;;;;23.47;32.67;101481.13;16118065;19;129582;-51
2023/06/17 08:42:28;;;;;;;2.40;2.20;;;;;;;23.49;32.69;101476.13;16119709;19;129533;-52
2023/06/17 08:47:51;;;;;;;3.35;2.55;;;;;;;23.48;32.49;101471.66;16114305;19;129885;-52
2023/06/17 08:53:14;;;;;;;4.97;2.67;;;;;;;23.49;32.87;101467.75;16114481;19;129846;-52
2023/06/17 08:58:37;;;;;;;3.75;2.72;;;;;;;23.49;32.48;101456.59;16112188;19;131150;-51
2023/06/17 09:04:01;;;;;;;2.93;2.40;;;;;;;23.49;32.39;101456.59;16114049;19;132009;-52
2023/06/17 09:09:23;;;;;;;5.13;2.47;;;;;;;23.50;32.53;101456.31;16112097;19;130696;-52
2023/06/17 09:14:48;;;;;;;5.72;2.60;;;;;;;23.50;32.95;101461.88;16116363;19;130286;-53
2023/06/17 09:20:15;;;;;;;4.70;2.45;;;;;;;23.52;33.01;101470.00;16115964;19;129610;-52
2023/06/17 09:25:36;;;;;;;3.90;2.50;;;;;;;23.54;32.75;101475.31;16114817;19;131209;-53
2023/06/17 09:31:03;;;;;;;4.32;2.55;;;;;;;23.55;32.71;101475.03;16108266;19;129523;-52
2023/06/17 09:36:26;;;;;;;3.83;2.55;;;;;;;23.54;33.10;101473.38;16108594;19;130887;-53
2023/06/17 09:41:48;;;;;;;2.95;2.20;;;;;;;23.54;32.30;101462.19;16105848;19;130116;-53
2023/06/17 09:47:10;;;;;;;5.70;3.03;;;;;;;23.57;32.77;101466.44;16106091;19;129493;-51
2023/06/17 09:52:35;;;;;;;7.32;2.72;;;;;;;23.56;32.73;101456.34;16105958;19;131261;-52
2023/06/17 09:57:59;;;;;;;2.72;2.20;;;;;;;23.57;32.69;101458.88;16103994;19;129827;-51
2023/06/17 10:03:24;;;;;;;3.33;2.33;;;;;;;23.58;32.62;101460.59;16093074;19;130373;-51
2023/06/17 10:08:52;;;;;;;3.72;2.53;;;;;;;23.60;32.78;101455.59;16105170;19;130153;-49
2023/06/17 10:14:20;;;;;;;3.70;2.50;;;;;;;23.60;32.75;101444.41;16097461;19;130627;-47
2023/06/17 10:19:43;;;;;;;3.88;2.40;;;;;;;23.60;32.72;101447.22;16102579;19;131463;-49
2023/06/17 10:25:06;;;;;;;4.85;2.70;;;;;;;23.60;32.72;101437.97;16104291;19;129847;-48
2023/06/17 10:30:28;;;;;;;4.00;2.28;;;;;;;23.61;32.41;101437.72;16105458;19;130456;-49
2023/06/17 10:36:05;;;;;;;4.47;2.55;;;;;;;23.62;32.84;101433.81;16108584;19;132738;-50
2023/06/17 10:41:44;;;;;;;4.22;2.85;;;;;;;23.64;32.61;101430.75;16115134;19;130542;-53
2023/06/17 10:47:20;;;;;;;5.70;2.58;;;;;;;23.64;32.54;101425.16;16127389;19;130737;-48
2023/06/17 10:52:45;;;;;;;4.18;2.30;;;;;;;23.63;32.80;101420.69;16125896;19;129554;-47
2023/06/17 10:58:07;;;;;;;4.57;2.60;;;;;;;23.64;32.94;101420.41;16125569;19;130765;-48
2023/06/17 11:03:29;;;;;;;3.83;2.70;;;;;;;23.65;32.99;101415.66;16121362;19;131582;-49
2023/06/17 11:08:52;;;;;;;5.40;2.70;;;;;;;23.66;32.93;101418.19;16123877;19;129717;-51
2023/06/17 11:14:20;;;;;;;4.53;2.22;;;;;;;23.66;32.83;101401.44;16127437;19;130185;-48
2023/06/17 11:19:42;;;;;;;;;;;;;;;23.65;33.29;101408.13;16125043;19;130420;-50
2023/06/17 11:25:05;;;;;;;5.45;2.55;;;;;;;23.68;33.13;101397.53;16123548;19;129308;-51
2023/06/17 11:30:27;;;;;;;4.65;2.60;;;;;;;23.68;32.88;101391.94;16120627;19;130846;-46
2023/06/17 11:35:53;;;;;;;6.40;2.45;;;;;;;23.68;32.91;101387.22;16123973;19;131868;-46
2023/06/17 11:41:15;;;;;;;5.65;2.63;;;;;;;23.68;32.67;101375.19;16120917;19;130676;-45
2023/06/17 11:46:37;;;;;;;6.25;2.80;;;;;;;23.69;32.98;101362.91;16120726;19;130246;-49
2023/06/17 11:52:02;;;;;;;4.00;2.78;;;;;;;23.70;33.20;101362.63;16117924;19;131167;-47
2023/06/17 11:57:25;;;;;;;4.85;2.90;;;;;;;23.70;32.81;101350.63;16121841;19;131046;-48
2023/06/17 12:02:47;;;;;;;4.57;2.50;;;;;;;23.72;32.91;101348.41;16122162;19;129335;-50
2023/06/17 12:08:09;;;;;;;5.93;3.28;;;;;;;23.71;32.93;101341.94;16115458;19;130945;-45
2023/06/17 12:13:41;;;;;;;6.22;3.22;;;;;;;23.74;32.73;101343.38;16113731;19;129223;-50
2023/06/17 12:19:06;;;;;;;5.18;2.70;;;;;;;23.74;32.92;101348.97;16115842;19;130794;-47
2023/06/17 12:24:28;;;;;;;3.87;2.90;;;;;;;23.73;33.17;101338.91;16118894;19;129440;-51
2023/06/17 12:29:50;;;;;;;4.60;2.63;;;;;;;23.75;33.17;101345.06;16117799;19;130243;-49
2023/06/17 12:35:14;;;;;;;4.90;2.78;;;;;;;23.76;33.10;101343.94;16119928;19;130723;-47
2023/06/17 12:40:36;;;;;;;3.47;3.15;;;;;;;23.75;33.01;101329.13;16118640;19;129668;-52
2023/06/17 12:45:59;;;;;;;4.43;2.85;;;;;;;23.76;32.96;101332.75;16111424;19;131576;-49
2023/06/17 12:51:21;;;;;;;8.73;3.25;;;;;;;23.80;32.92;101319.94;16114086;19;129832;-47
2023/06/17 12:56:43;;;;;;;5.93;3.50;;;;;;;23.88;32.52;101322.19;16113411;19;129210;-51
2023/06/17 13:02:06;;;;;;;7.75;3.70;;;;;;;23.93;32.16;101325.03;16115038;19;131204;-50
2023/06/17 13:07:28;;;;;;;12.50;4.07;;;;;;;23.94;32.55;101326.69;16115270;19;129721;-49
2023/06/17 13:12:50;;;;;;;12.43;4.10;;;;;;;23.94;32.91;101323.91;16115656;19;130217;-48
2023/06/17 13:18:15;;;;;;;8.27;3.38;;;;;;;23.94;32.78;101323.06;16114543;19;129279;-50
2023/06/17 13:23:36;;;;;;;7.83;3.20;;;;;;;23.92;33.23;101314.94;16116566;19;129581;-49
2023/06/17 13:29:04;;;;;;;5.47;3.35;;;;;;;23.93;33.07;101322.22;16115651;19;131139;-50
2023/06/17 13:34:26;;;;;;;5.82;3.63;;;;;;;23.93;33.28;101311.03;16117235;19;129859;-48
2023/06/17 13:39:48;;;;;;;9.55;3.55;;;;;;;23.94;33.09;101311.88;16115606;19;131317;-47
2023/06/17 13:45:11;;;;;;;5.40;3.40;;;;;;;23.95;33.28;101297.66;16114556;19;131449;-46
2023/06/17 13:50:36;;;;;;;7.22;3.78;;;;;;;23.97;33.29;101294.56;16111297;19;129745;-53
2023/06/17 13:55:58;;;;;;;6.80;3.53;;;;;;;23.98;33.38;101301.84;16114527;19;130643;-47
2023/06/17 14:01:21;;;;;;;5.57;3.40;;;;;;;24.00;33.29;101293.19;16111983;19;130203;-46
2023/06/17 14:06:45;;;;;;;6.05;3.47;;;;;;;24.00;33.48;101293.19;16107220;19;131244;-48
2023/06/17 14:12:11;;;;;;;3.97;3.13;;;;;;;24.01;33.53;101297.66;16107462;19;129794;-46
2023/06/17 14:17:33;;;;;;;5.25;3.30;;;;;;;24.02;33.51;101297.38;16101654;19;129643;-46
2023/06/17 14:22:59;;;;;;;7.07;3.65;;;;;;;24.04;33.51;101295.16;16104451;19;129936;-48
2023/06/17 14:28:21;;;;;;;3.40;3.10;;;;;;;24.04;33.05;101291.50;16108142;19;131026;-49
2023/06/17 14:33:43;;;;;;;6.38;3.17;;;;;;;24.04;33.60;101288.72;16110356;19;129571;-48
2023/06/17 14:39:04;;;;;;;7.38;3.22;;;;;;;24.04;33.29;101283.13;16110267;19;130767;-48
2023/06/17 14:44:27;;;;;;;6.05;3.53;;;;;;;24.04;33.32;101283.13;16106845;19;130628;-48
2023/06/17 14:49:49;;;;;;;3.92;3.13;;;;;;;24.05;33.15;101284.81;16107324;19;130968;-47
2023/06/17 14:55:15;;;;;;;7.67;3.53;;;;;;;24.05;33.12;101280.09;16108211;19;131157;-47
2023/06/17 15:00:36;;;;;;;4.75;3.50;;;;;;;24.04;33.32;101278.41;16110692;19;130923;-48
2023/06/17 15:05:58;;;;;;;3.33;3.03;;;;;;;24.06;33.12;101275.31;16109427;19;131028;-45
2023/06/17 15:11:20;;;;;;;4.88;3.28;;;;;;;24.07;33.06;101265.81;16103897;19;129494;-48
2023/06/17 15:16:42;;;;;;;3.50;3.20;;;;;;;24.06;33.13;101259.38;16105639;19;130572;-47
2023/06/17 15:22:05;;;;;;;5.20;3.58;;;;;;;24.06;33.12;101262.16;16104838;19;130579;-45
2023/06/17 15:27:27;;;;;;;4.30;3.40;;;;;;;24.08;33.05;101261.91;16103953;19;130624;-53
2023/06/17 15:32:51;;;;;;;6.32;3.15;;;;;;;24.08;32.71;101247.94;16120968;19;129922;-47
2023/06/17 15:38:13;;;;;;;5.63;3.42;;;;;;;24.09;32.96;101246.81;16117401;19;131345;-51
2023/06/17 15:43:35;;;;;;;3.22;2.90;;;;;;;24.09;33.13;101258.00;16118481;19;131465;-45
2023/06/17 15:48:57;;;;;;;4.55;3.08;;;;;;;24.09;33.10;101241.22;16116136;19;129891;-49
2023/06/17 15:54:25;;;;;;;7.15;3.10;;;;;;;24.10;33.10;101237.31;16119549;19;130075;-47
2023/06/17 15:59:47;;;;;;;3.50;3.20;;;;;;;24.10;32.90;101245.72;16119651;19;131475;-47
2023/06/17 16:05:10;;;;;;;3.60;3.00;;;;;;;24.10;33.06;101238.16;16119520;19;129382;-47
2023/06/17 16:10:32;;;;;;;6.30;3.67;;;;;;;24.10;33.30;101237.31;16115919;19;130184;-50
2023/06/17 16:15:54;;;;;;;4.70;3.38;;;;;;;24.10;32.97;101237.31;16116948;19;134698;-45
2023/06/17 16:21:16;;;;;;;4.80;3.05;;;;;;;24.10;32.94;101231.75;16115056;19;131322;-47
2023/06/17 16:26:38;;;;;;;4.45;3.42;;;;;;;24.11;32.95;101222.25;16115488;19;131668;-46
2023/06/17 16:32:00;;;;;;;5.00;3.40;;;;;;;24.11;33.11;101225.03;16115491;19;131010;-45
2023/06/17 16:37:22;;;;;;;5.88;3.30;;;;;;;24.10;33.08;101226.97;16115087;19;130865;-45
2023/06/17 16:42:44;;;;;;;5.25;3.35;;;;;;;24.10;33.08;101215.78;16112453;19;130897;-47
2023/06/17 16:48:06;;;;;;;9.63;3.78;;;;;;;24.12;33.04;101219.16;16113838;19;129893;-48
2023/06/17 16:53:32;;;;;;;8.10;4.03;;;;;;;24.12;32.95;101224.75;16114653;19;129480;-47
2023/06/17 16:58:54;;;;;;;10.30;3.95;;;;;;;24.12;33.26;101219.16;16114712;19;129153;-51
2023/06/17 17:04:16;;;;;;;8.80;3.92;;;;;;;24.14;33.43;101218.03;16116662;19;131389;-45
2023/06/17 17:09:39;;;;;;;15.48;3.70;;;;;;;24.17;33.41;101214.69;16115320;19;129947;-47
2023/06/17 17:15:01;;;;;;;8.10;3.70;;;;;;;24.21;33.24;101211.06;16106037;19;131209;-47
2023/06/17 17:20:24;;;;;;;6.57;3.72;;;;;;;24.25;33.25;101215.00;16112805;19;129697;-44
2023/06/17 17:25:46;;;;;;;10.68;4.30;;;;;;;24.30;32.94;101211.38;16111682;19;130455;-46
2023/06/17 17:31:08;;;;;;;16.10;4.75;;;;;;;24.37;32.65;101209.16;16107991;19;130913;-47
2023/06/17 17:36:30;;;;;;;14.63;4.70;;;;;;;24.41;32.50;101204.69;16105848;19;131207;-45
2023/06/17 17:41:52;;;;;;;10.05;4.40;;;;;;;24.47;32.62;101213.06;16104261;19;131808;-48
2023/06/17 17:47:17;;;;;;;13.00;4.40;;;;;;;24.50;32.54;101215.31;16111055;19;135679;-45
2023/06/17 17:52:40;;;;;;;10.20;4.65;;;;;;;24.50;32.74;101204.94;16107915;19;131384;-48
2023/06/17 17:58:01;;;;;;;8.27;4.60;;;;;;;24.54;32.63;101205.25;16109946;19;131519;-46
2023/06/17 18:03:23;;;;;;;8.35;4.38;;;;;;;24.54;32.79;101211.66;16106214;19;130329;-45
2023/06/17 18:08:45;;;;;;;10.65;4.78;;;;;;;24.55;32.77;101202.16;16099145;19;132705;-47
2023/06/17 18:14:07;;;;;;;12.93;4.40;;;;;;;24.56;32.82;101206.63;16104166;19;131099;-46
2023/06/17 18:19:29;;;;;;;20.95;5.07;;;;;;;24.58;33.37;101198.81;16098087;19;134192;-46
2023/06/17 18:24:51;;;;;;;15.65;5.00;;;;;;;24.57;34.03;101202.72;16106698;19;130421;-51
2023/06/17 18:30:13;;;;;;;13.93;4.72;;;;;;;24.58;34.21;101204.41;16107994;19;132348;-49
2023/06/17 18:35:35;;;;;;;18.05;4.80;;;;;;;24.58;34.33;101209.13;16108021;19;129908;-46
2023/06/17 18:40:57;;;;;;;11.70;5.03;;;;;;;24.57;34.58;101213.03;16109606;19;130978;-49
2023/06/17 18:46:20;;;;;;;12.10;5.05;;;;;;;24.57;34.43;101215.84;16107929;19;131441;-48
2023/06/17 18:51:42;;;;;;;17.48;5.10;;;;;;;24.57;34.81;101208.31;16106789;19;130959;-49
2023/06/17 18:57:04;;;;;;;16.85;5.55;;;;;;;24.62;34.87;101217.78;16109099;19;130562;-45
2023/06/17 19:02:27;;;;;;;21.33;5.13;;;;;;;24.63;34.83;101217.53;16107605;19;130403;-45
2023/06/17 19:07:49;;;;;;;20.90;5.78;;;;;;;24.65;34.96;101220.91;16122075;19;130482;-49
2023/06/17 19:13:11;;;;;;;19.60;5.53;;;;;;;24.66;34.92;101228.19;16122996;19;130966;-46
2023/06/17 19:18:33;;;;;;;12.43;5.32;;;;;;;24.66;34.55;101222.56;16124245;19;131140;-47
2023/06/17 19:23:55;;;;;;;14.10;5.00;;;;;;;24.62;34.54;101217.78;16118720;19;131139;-48
2023/06/17 19:29:17;;;;;;;12.73;5.15;;;;;;;24.58;34.48;101220.31;16119577;19;131705;-47
2023/06/17 19:34:39;;;;;;;9.10;5.15;;;;;;;24.53;34.24;101218.38;16113892;19;129807;-45
2023/06/17 19:40:01;;;;;;;8.45;4.57;;;;;;;24.52;33.93;101221.47;16113026;19;131280;-52
2023/06/17 19:45:28;;;;;;;17.27;5.15;;;;;;;24.49;33.83;101216.41;16113498;19;130157;-47
2023/06/17 19:50:50;;;;;;;7.65;4.47;;;;;;;24.49;33.72;101227.59;16121283;19;131401;-47
2023/06/17 19:56:12;;;;;;;8.88;4.93;;;;;;;24.47;34.11;101229.84;16118645;19;130114;-49
2023/06/17 20:01:35;;;;;;;12.10;5.30;;;;;;;24.46;33.86;101233.75;16118124;19;129553;-50
2023/06/17 20:06:58;;;;;;;5.90;4.80;;;;;;;24.45;34.08;101227.31;16111177;19;131030;-47
2023/06/17 20:12:20;;;;;;;5.43;4.13;;;;;;;24.44;33.74;101231.25;16114366;19;131330;-49
2023/06/17 20:17:43;;;;;;;6.30;4.25;;;;;;;24.42;34.17;101233.47;16110879;19;130139;-47
2023/06/17 20:23:05;;;;;;;7.03;4.63;;;;;;;24.41;34.46;101231.78;16109789;19;130448;-47
2023/06/17 20:28:28;;;;;;;8.35;4.88;;;;;;;24.40;34.21;101235.69;16107377;19;130351;-46
2023/06/17 20:33:50;;;;;;;6.30;4.50;;;;;;;24.38;34.46;101222.00;16116471;19;130670;-47
2023/06/17 20:39:11;;;;;;;9.20;4.65;;;;;;;24.38;34.44;101230.41;16114357;19;130750;-47
2023/06/17 20:44:33;;;;;;;7.15;4.03;;;;;;;24.36;34.48;101223.41;16112756;19;130656;-47
2023/06/17 20:49:55;;;;;;;8.10;4.80;;;;;;;24.35;34.96;101228.16;16114451;19;130331;-47
2023/06/17 20:55:17;;;;;;;13.13;4.97;;;;;;;24.35;34.88;101232.91;16109509;19;130473;-48
2023/06/17 21:00:39;;;;;;;12.15;4.97;;;;;;;24.33;34.76;101235.97;16111271;19;129654;-47
2023/06/17 21:06:01;;;;;;;10.32;4.57;;;;;;;24.33;34.80;101230.38;16114433;19;129578;-49
2023/06/17 21:11:23;;;;;;;14.32;5.05;;;;;;;24.32;34.98;101231.50;16111388;19;130459;-46
2023/06/17 21:16:45;;;;;;;14.77;4.70;;;;;;;24.31;34.96;101231.78;16109760;19;132120;-47
2023/06/17 21:22:07;;;;;;;11.23;4.80;;;;;;;24.30;35.05;101230.09;16113653;19;131668;-47
2023/06/17 21:27:29;;;;;;;6.18;4.57;;;;;;;24.30;34.78;101232.91;16111506;19;129425;-52
2023/06/17 21:32:51;;;;;;;7.65;4.72;;;;;;;24.29;35.18;101242.41;16117275;19;130370;-52
2023/06/17 21:38:13;;;;;;;10.40;4.80;;;;;;;24.26;35.15;101238.22;16114514;19;131110;-48
2023/06/17 21:43:35;;;;;;;13.23;5.40;;;;;;;24.24;35.10;101227.31;16108224;19;130527;-45
2023/06/17 21:48:57;;;;;;;10.52;4.90;;;;;;;24.21;35.45;101227.84;16106270;19;130242;-49
2023/06/17 21:54:19;;;;;;;12.65;5.50;;;;;;;24.20;35.31;101220.56;16113987;19;131616;-51
2023/06/17 21:59:41;;;;;;;10.35;5.03;;;;;;;24.18;35.43;101222.78;16110954;19;130540;-49
2023/06/17 22:05:03;;;;;;;8.00;5.47;;;;;;;24.17;35.58;101220.28;16106354;19;131454;-49
2023/06/17 22:10:28;;;;;;;9.40;5.72;;;;;;;24.15;35.59;101211.34;16107425;19;131095;-46
2023/06/17 22:15:50;;;;;;;12.50;5.60;;;;;;;24.15;35.60;101205.75;16100634;19;130825;-52
2023/06/17 22:21:12;;;;;;;9.13;5.60;;;;;;;24.14;35.73;101212.44;16102674;19;130545;-49
2023/06/17 22:26:34;;;;;;;13.10;6.32;;;;;;;24.14;36.07;101216.06;16099243;19;135396;-50
2023/06/17 22:31:56;;;;;;;12.55;6.07;;;;;;;24.16;35.49;101216.63;16103003;19;129336;-50
2023/06/17 22:37:19;;;;;;;9.00;5.45;;;;;;;24.17;35.45;101214.69;16104509;19;130712;-52
2023/06/17 22:42:41;;;;;;;11.60;5.53;;;;;;;24.18;35.75;101216.38;16100903;19;131212;-48
2023/06/17 22:48:03;;;;;;;9.90;5.70;;;;;;;24.17;35.60;101212.72;16104345;19;129744;-49
2023/06/17 22:53:25;;;;;;;12.15;5.68;;;;;;;24.18;35.66;101217.19;16106447;19;130262;-48
2023/06/17 22:58:47;;;;;;;8.07;5.72;;;;;;;24.20;35.63;101208.53;16108755;19;130295;-50
2023/06/17 23:04:10;;;;;;;10.40;5.72;;;;;;;24.20;35.83;101212.19;16105600;19;133935;-46
2023/06/17 23:09:32;;;;;;;8.82;5.68;;;;;;;24.20;35.82;101214.97;16105814;19;130847;-48
2023/06/17 23:14:54;;;;;;;16.42;5.60;;;;;;;24.21;35.68;101211.06;16106020;19;131692;-53
2023/06/17 23:20:16;;;;;;;10.05;5.05;;;;;;;24.20;35.67;101206.59;16106648;19;130569;-47
2023/06/17 23:25:38;;;;;;;9.45;6.18;;;;;;;24.20;35.76;101195.41;16105177;19;130115;-49
2023/06/17 23:31:00;;;;;;;9.73;5.38;;;;;;;24.20;35.81;101195.41;16102064;19;131182;-49
2023/06/17 23:36:22;;;;;;;9.95;5.68;;;;;;;24.21;35.61;101199.88;16107844;19;131557;-55
2023/06/17 23:41:44;;;;;;;8.18;5.68;;;;;;;24.22;35.63;101195.13;16102017;19;130645;-48
2023/06/17 23:47:07;;;;;;;8.43;5.38;;;;;;;24.21;35.82;101193.44;16100578;19;129338;-53
2023/06/17 23:52:29;;;;;;;10.05;5.43;;;;;;;24.21;35.75;101196.22;16116882;19;133829;-53
2023/06/17 23:57:51;;;;;;;16.30;5.68;;;;;;;24.20;35.55;101174.97;16115310;19;131231;-53
